Terminal Aerodrome Forecast
Issued by NWS

Home | Current Version | Previous Version | Graphics & Text | Print | Product List | Glossary On
Versions: 1 2 3 4 5 6 7 8 9 10 11 12 13 14 15 16 17 18 19 20
000
FTUS43 KABR 152300
TAFATY
TAF
KATY 152339Z 1600/1624 15014G19KT P6SM BKN100
     FM160800 09018G25KT P6SM VCSH OVC080
     FM161000 08016G23KT 4SM -RASN OVC035
     FM161200 05013G21KT 1SM -SN OVC015
     FM161800 02021G30KT 2SM -SN OVC025=

USA.gov is the U.S. government's official web portal to all federal, state and local government web resources and services.